createdAt,value
2018-11-13T00:01:48.358Z,96924.39
2018-11-13T00:04:15.578Z,96914.09
2018-11-13T00:06:42.930Z,96916.23
2018-11-13T00:09:10.093Z,96927.31
2018-11-13T00:11:37.508Z,96933.66
2018-11-13T00:14:04.806Z,96931.41
2018-11-13T00:16:32.053Z,96931.77
2018-11-13T00:18:59.253Z,96934.02
2018-11-13T00:21:26.500Z,96933.75
2018-11-13T00:23:53.752Z,96932.84
2018-11-13T00:26:20.996Z,96930.81
2018-11-13T00:28:48.281Z,96928.69
2018-11-13T00:31:15.518Z,96927.77
2018-11-13T00:33:42.751Z,96928.97
2018-11-13T00:36:10.004Z,96926.94
2018-11-13T00:38:37.252Z,96920.04
2018-11-13T00:41:05.358Z,96919.59
2018-11-13T00:43:32.697Z,96924.12
2018-11-13T00:46:00.021Z,96926.18
2018-11-13T00:48:27.666Z,96930.88
2018-11-13T00:50:54.540Z,96931.60
2018-11-13T00:53:21.763Z,96927.48
2018-11-13T00:55:49.050Z,96935.89
2018-11-13T00:58:16.246Z,96943.11
2018-11-13T01:00:43.527Z,96941.70
2018-11-13T01:03:10.769Z,96944.05
2018-11-13T01:05:38.140Z,96941.34
2018-11-13T01:08:05.544Z,96944.53
2018-11-13T01:10:32.790Z,96944.80
2018-11-13T01:13:00.045Z,96952.21
2018-11-13T01:15:27.325Z,96962.17
2018-11-13T01:17:54.506Z,96963.70
2018-11-13T01:20:21.801Z,96968.17
2018-11-13T01:22:49.072Z,96975.56
2018-11-13T01:25:16.809Z,96977.64
2018-11-13T01:27:44.528Z,96978.50
2018-11-13T01:30:12.571Z,96972.86
2018-11-13T01:32:40.762Z,96980.30
2018-11-13T01:35:09.326Z,96980.22
2018-11-13T01:37:36.643Z,96980.80
2018-11-13T01:40:05.765Z,96953.55
2018-11-13T01:42:36.065Z,96973.53
2018-11-13T01:45:07.732Z,96973.23
2018-11-13T01:47:35.053Z,96960.28
2018-11-13T01:50:02.363Z,96982.47
2018-11-13T01:52:29.691Z,96999.70
2018-11-13T01:54:56.876Z,96996.48
2018-11-13T01:57:24.147Z,96994.94
2018-11-13T01:59:51.362Z,96995.48
2018-11-13T02:02:18.607Z,97006.92
2018-11-13T02:04:45.879Z,97008.23
2018-11-13T02:07:13.160Z,97009.39
2018-11-13T02:09:40.408Z,97017.05
2018-11-13T02:12:08.658Z,97014.89
2018-11-13T02:14:35.893Z,97017.99
2018-11-13T02:17:03.165Z,97017.30
2018-11-13T02:19:30.438Z,97028.56
2018-11-13T02:21:57.683Z,97016.66
2018-11-13T02:24:24.953Z,97024.37
2018-11-13T02:26:52.158Z,97025.15
2018-11-13T02:29:19.442Z,97022.34
2018-11-13T02:31:46.676Z,97033.76
2018-11-13T02:34:13.846Z,97042.38
2018-11-13T02:36:41.141Z,97020.44
2018-11-13T02:39:09.270Z,97029.16
2018-11-13T02:41:36.595Z,97023.72
2018-11-13T02:44:04.062Z,97032.52
2018-11-13T02:46:31.391Z,97034.03
2018-11-13T02:48:58.644Z,97042.96
2018-11-13T02:51:25.885Z,97036.05
2018-11-13T02:53:53.167Z,97038.30
2018-11-13T02:56:20.379Z,97047.64
2018-11-13T02:58:47.647Z,97055.00
2018-11-13T03:01:14.896Z,97055.86
2018-11-13T03:03:42.180Z,97050.06
2018-11-13T03:06:09.371Z,97063.77
2018-11-13T03:08:36.639Z,97067.77
2018-11-13T03:11:04.029Z,97054.72
2018-11-13T03:13:31.379Z,97063.85
2018-11-13T03:15:58.661Z,97069.84
2018-11-13T03:18:25.889Z,97078.05
2018-11-13T03:20:53.084Z,97075.44
2018-11-13T03:23:20.353Z,97087.55
2018-11-13T03:25:47.567Z,97094.36
2018-11-13T03:28:14.820Z,97092.77
2018-11-13T03:30:42.081Z,97090.16
2018-11-13T03:33:09.303Z,97093.34
2018-11-13T03:35:36.540Z,97091.09
2018-11-13T03:38:03.805Z,97092.97
2018-11-13T03:40:31.161Z,97083.92
2018-11-13T03:42:58.427Z,97085.80
2018-11-13T03:45:25.671Z,97085.67
2018-11-13T03:47:52.904Z,97094.44
2018-11-13T03:50:21.193Z,97090.16
2018-11-13T03:52:48.632Z,97097.25
2018-11-13T03:55:16.433Z,97102.64
2018-11-13T03:57:44.563Z,97103.01
2018-11-13T04:00:13.589Z,97103.95
2018-11-13T04:02:41.178Z,97113.94
2018-11-13T04:05:10.168Z,97114.11
2018-11-13T04:07:49.451Z,97115.13
2018-11-13T04:10:17.630Z,97117.49
2018-11-13T04:12:45.114Z,97132.88
2018-11-13T04:15:13.460Z,97115.33
2018-11-13T04:17:40.888Z,97128.95
2018-11-13T04:20:10.932Z,97134.17
2018-11-13T04:22:38.177Z,97134.47
2018-11-13T04:25:05.646Z,97132.88
2018-11-13T04:27:32.878Z,97137.98
2018-11-13T04:30:00.167Z,97132.50
2018-11-13T04:32:27.431Z,97147.50
2018-11-13T04:34:54.651Z,97152.23
2018-11-13T04:37:21.879Z,97152.78
2018-11-13T04:39:49.124Z,97154.83
2018-11-13T04:42:16.479Z,97159.14
2018-11-13T04:44:43.771Z,97155.59
2018-11-13T04:47:11.116Z,97165.39
2018-11-13T04:49:38.368Z,97162.22
2018-11-13T04:52:05.812Z,97153.43
2018-11-13T04:54:33.056Z,97153.23
2018-11-13T04:57:00.330Z,97162.89
2018-11-13T04:59:27.611Z,97162.37
2018-11-13T05:01:55.025Z,97174.58
2018-11-13T05:04:22.338Z,97175.43
2018-11-13T05:06:49.544Z,97175.86
2018-11-13T05:09:16.798Z,97181.64
2018-11-13T05:11:44.164Z,97189.55
2018-11-13T05:14:11.708Z,97184.44
2018-11-13T05:16:38.978Z,97186.59
2018-11-13T05:19:06.238Z,97188.27
2018-11-13T05:21:33.566Z,97177.91
2018-11-13T05:24:00.832Z,97186.94
2018-11-13T05:26:28.111Z,97194.66
2018-11-13T05:28:55.387Z,97184.02
2018-11-13T05:31:22.669Z,97190.53
2018-11-13T05:33:49.906Z,97197.64
2018-11-13T05:36:17.096Z,97202.27
2018-11-13T05:38:44.385Z,97207.44
2018-11-13T05:41:11.653Z,97210.13
2018-11-13T05:43:38.902Z,97220.27
2018-11-13T05:46:06.152Z,97226.98
2018-11-13T05:48:33.760Z,97236.74
2018-11-13T05:51:01.097Z,97241.48
2018-11-13T05:53:28.359Z,97256.64
2018-11-13T05:55:55.638Z,97267.27
2018-11-13T05:58:22.851Z,97269.57
2018-11-13T06:00:50.110Z,97273.94
2018-11-13T06:03:17.413Z,97268.91
2018-11-13T06:05:44.798Z,97271.14
2018-11-13T06:08:12.167Z,97275.23
2018-11-13T06:10:39.445Z,97281.69
2018-11-13T06:13:06.742Z,97282.16
2018-11-13T06:15:33.985Z,97281.75
2018-11-13T06:18:01.264Z,97279.74
2018-11-13T06:20:28.434Z,97275.23
2018-11-13T06:22:55.675Z,97278.73
2018-11-13T06:25:22.888Z,97283.32
2018-11-13T06:27:50.158Z,97290.92
2018-11-13T06:30:19.794Z,97299.52
2018-11-13T06:32:47.497Z,97308.45
2018-11-13T06:35:14.709Z,97318.59
2018-11-13T06:37:41.938Z,97324.01
2018-11-13T06:40:09.628Z,97326.11
2018-11-13T06:42:37.264Z,97325.18
2018-11-13T06:45:05.800Z,97330.14
2018-11-13T06:47:33.012Z,97331.25
2018-11-13T06:50:00.260Z,97336.91
2018-11-13T06:52:27.958Z,97344.96
2018-11-13T06:56:06.860Z,97350.24
2018-11-13T06:58:34.138Z,97336.41
2018-11-13T07:01:01.412Z,97335.91
2018-11-13T07:03:28.595Z,97334.61
2018-11-13T07:05:55.864Z,97348.64
2018-11-13T07:08:23.035Z,97338.47
2018-11-13T07:10:50.402Z,97331.77
2018-11-13T07:13:17.491Z,97334.48
2018-11-13T07:15:44.819Z,97340.81
2018-11-13T07:18:12.169Z,97349.39
2018-11-13T07:20:39.385Z,97349.56
2018-11-13T07:23:06.737Z,97354.47
2018-11-13T07:25:34.091Z,97366.64
2018-11-13T07:28:01.392Z,97375.86
2018-11-13T07:30:28.663Z,97380.94
2018-11-13T07:32:55.921Z,97393.97
2018-11-13T07:35:23.286Z,97401.23
2018-11-13T07:37:52.860Z,97403.22
2018-11-13T07:40:20.332Z,97406.82
2018-11-13T07:42:47.605Z,97414.47
2018-11-13T07:45:15.209Z,97415.16
2018-11-13T07:47:43.426Z,97417.45
2018-11-13T07:50:11.346Z,97423.14
2018-11-13T07:52:38.656Z,97432.33
2018-11-13T07:55:06.653Z,97433.64
2018-11-13T07:57:34.011Z,97434.86
2018-11-13T08:00:01.245Z,97445.69
2018-11-13T08:02:28.484Z,97447.37
2018-11-13T08:04:55.685Z,97443.61
2018-11-13T08:07:23.057Z,97374.97
2018-11-13T08:09:50.275Z,97462.14
2018-11-13T08:12:17.645Z,97470.13
2018-11-13T08:14:45.144Z,97470.88
2018-11-13T08:17:12.380Z,97470.36
2018-11-13T08:19:39.603Z,97459.08
2018-11-13T08:22:06.987Z,97451.13
2018-11-13T08:24:34.248Z,97441.84
2018-11-13T08:27:01.466Z,97448.43
2018-11-13T08:29:28.722Z,97443.62
2018-11-13T08:31:55.874Z,97428.38
2018-11-13T08:34:23.107Z,97419.48
2018-11-13T08:36:50.378Z,97422.09
2018-11-13T08:39:17.695Z,97427.16
2018-11-13T08:41:45.002Z,97442.47
2018-11-13T08:44:12.315Z,97436.95
2018-11-13T08:46:39.521Z,97440.98
2018-11-13T08:49:06.938Z,97452.70
2018-11-13T08:51:34.191Z,97454.92
2018-11-13T08:54:01.473Z,97458.14
2018-11-13T08:56:28.699Z,97447.82
2018-11-13T08:58:55.978Z,97455.77
2018-11-13T09:01:23.365Z,97456.23
2018-11-13T09:03:50.608Z,97459.83
2018-11-13T09:06:17.992Z,97456.37
2018-11-13T09:08:45.236Z,97455.00
2018-11-13T09:11:12.534Z,97474.59
2018-11-13T09:13:39.693Z,97476.69
2018-11-13T09:16:07.001Z,97492.53
2018-11-13T09:18:34.238Z,97492.97
2018-11-13T09:21:01.480Z,97492.23
2018-11-13T09:23:28.726Z,97493.48
2018-11-13T09:25:55.970Z,97481.45
2018-11-13T09:28:23.238Z,97490.34
2018-11-13T09:30:50.826Z,97484.16
2018-11-13T09:33:17.731Z,97496.55
2018-11-13T09:35:44.993Z,97519.62
2018-11-13T09:38:12.270Z,97521.33
2018-11-13T09:40:39.509Z,97522.09
2018-11-13T09:43:06.748Z,97505.69
2018-11-13T09:45:34.022Z,97526.84
2018-11-13T09:48:01.281Z,97542.25
2018-11-13T09:50:28.550Z,97538.79
2018-11-13T09:52:55.729Z,97541.78
2018-11-13T09:55:23.235Z,97539.93
2018-11-13T09:57:50.594Z,97529.98
2018-11-13T10:00:20.633Z,97533.73
2018-11-13T10:02:49.753Z,97544.25
2018-11-13T10:05:17.443Z,97544.00
2018-11-13T10:07:45.044Z,97529.06
2018-11-13T10:10:12.329Z,97539.55
2018-11-13T10:12:39.549Z,97432.94
2018-11-13T10:15:10.044Z,97533.88
2018-11-13T10:17:37.791Z,97537.31
2018-11-13T10:20:05.235Z,97528.97
2018-11-13T10:22:32.454Z,97551.94
2018-11-13T10:24:59.730Z,97549.81
2018-11-13T10:27:26.900Z,97556.38
2018-11-13T10:29:54.081Z,97556.38
2018-11-13T10:32:21.405Z,97549.11
2018-11-13T10:34:48.691Z,97556.70
2018-11-13T10:37:15.976Z,97551.02
2018-11-13T10:39:43.303Z,97562.61
2018-11-13T10:42:10.502Z,97570.64
2018-11-13T10:44:37.797Z,97571.34
2018-11-13T10:47:05.097Z,97568.52
2018-11-13T10:49:32.405Z,97581.63
2018-11-13T10:51:59.682Z,97578.08
2018-11-13T10:54:26.858Z,97575.85
2018-11-13T10:56:54.106Z,97569.59
2018-11-13T10:59:21.346Z,97571.05
2018-11-13T11:01:54.270Z,97559.17
2018-11-13T11:04:27.382Z,97570.00
2018-11-13T11:06:54.571Z,97568.59
2018-11-13T11:09:21.803Z,97589.69
2018-11-13T11:11:49.031Z,97611.08
2018-11-13T11:14:16.297Z,97593.15
2018-11-13T11:16:43.476Z,97572.38
2018-11-13T11:19:10.970Z,97576.22
2018-11-13T11:21:38.177Z,97599.37
2018-11-13T11:24:05.488Z,97594.64
2018-11-13T11:26:32.804Z,97590.66
2018-11-13T11:28:59.977Z,97600.86
2018-11-13T11:31:27.234Z,97609.31
2018-11-13T11:33:54.436Z,97613.29
2018-11-13T11:36:21.669Z,97617.22
2018-11-13T11:38:49.039Z,97615.75
2018-11-13T11:41:16.187Z,97614.14
2018-11-13T11:43:43.372Z,97624.35
2018-11-13T11:46:10.658Z,97618.66
2018-11-13T11:48:37.896Z,97618.21
2018-11-13T11:51:05.210Z,97620.05
2018-11-13T11:53:32.391Z,97625.18
2018-11-13T11:55:59.687Z,97629.25
2018-11-13T11:58:26.921Z,97635.39
2018-11-13T12:00:54.119Z,97643.30
2018-11-13T12:03:21.327Z,97638.99
2018-11-13T12:05:48.563Z,97630.55
2018-11-13T12:08:15.766Z,97636.16
2018-11-13T12:10:43.052Z,97625.25
2018-11-13T12:13:10.346Z,97642.05
2018-11-13T12:15:37.631Z,97632.23
2018-11-13T12:18:05.347Z,97644.00
2018-11-13T12:20:32.584Z,97646.74
2018-11-13T12:22:59.834Z,97647.80
2018-11-13T12:25:27.036Z,97641.81
2018-11-13T12:27:54.306Z,97638.52
2018-11-13T12:30:22.764Z,97638.53
2018-11-13T12:32:50.686Z,97639.59
2018-11-13T12:35:18.915Z,97645.66
2018-11-13T12:37:46.333Z,97645.78
2018-11-13T12:40:14.925Z,97643.90
2018-11-13T12:42:42.929Z,97649.02
2018-11-13T12:45:10.524Z,97649.52
2018-11-13T12:47:37.967Z,97649.72
2018-11-13T12:50:06.545Z,97654.37
2018-11-13T12:52:33.768Z,97647.66
2018-11-13T12:55:01.037Z,97652.59
2018-11-13T12:57:28.278Z,97652.08
2018-11-13T12:59:55.622Z,97665.98
2018-11-13T13:02:22.934Z,97667.43
2018-11-13T13:04:50.136Z,97658.59
2018-11-13T13:07:17.374Z,97667.63
2018-11-13T13:09:44.610Z,97672.05
2018-11-13T13:12:11.846Z,97669.42
2018-11-13T13:14:39.196Z,97679.00
2018-11-13T13:17:06.670Z,97685.64
2018-11-13T13:19:33.912Z,97691.30
2018-11-13T13:22:01.280Z,97688.31
2018-11-13T13:24:28.542Z,97685.32
2018-11-13T13:26:55.835Z,97686.73
2018-11-13T13:29:23.077Z,97689.95
2018-11-13T13:31:50.407Z,97683.52
2018-11-13T13:34:17.590Z,97679.27
2018-11-13T13:36:44.845Z,97680.20
2018-11-13T13:39:12.120Z,97677.52
2018-11-13T13:41:39.370Z,97683.80
2018-11-13T13:44:07.073Z,97677.57
2018-11-13T13:46:34.517Z,97676.68
2018-11-13T13:49:01.795Z,97673.38
2018-11-13T13:51:28.989Z,97677.13
2018-11-13T13:53:56.404Z,97682.72
2018-11-13T13:56:23.510Z,97673.69
2018-11-13T13:58:50.718Z,97681.20
2018-11-13T14:01:18.022Z,97675.30
2018-11-13T14:03:45.304Z,97675.87
2018-11-13T14:06:12.604Z,97680.98
2018-11-13T14:08:39.835Z,97686.03
2018-11-13T14:11:07.031Z,97687.27
2018-11-13T14:13:34.371Z,97695.73
2018-11-13T14:16:01.629Z,97694.42
2018-11-13T14:18:28.886Z,97701.50
2018-11-13T14:20:56.198Z,97704.75
2018-11-13T14:23:23.389Z,97708.56
2018-11-13T14:25:50.722Z,97710.60
2018-11-13T14:28:17.989Z,97717.86
2018-11-13T14:30:45.230Z,97710.88
2018-11-13T14:33:12.824Z,97724.34
2018-11-13T14:35:40.185Z,97722.80
2018-11-13T14:38:07.347Z,97733.32
2018-11-13T14:40:38.010Z,97731.70
2018-11-13T14:43:05.287Z,97724.88
2018-11-13T14:45:32.625Z,97732.70
2018-11-13T14:48:00.030Z,97736.38
2018-11-13T14:50:28.572Z,97736.53
2018-11-13T14:52:56.009Z,97737.59
2018-11-13T14:55:26.451Z,97739.81
2018-11-13T14:57:54.080Z,97736.22
2018-11-13T15:00:22.743Z,97745.86
2018-11-13T15:02:50.604Z,97745.61
2018-11-13T15:05:19.048Z,97748.88
2018-11-13T15:07:47.448Z,97745.50
2018-11-13T15:10:16.806Z,97753.63
2018-11-13T15:12:44.108Z,97752.39
2018-11-13T15:15:11.676Z,97754.90
2018-11-13T15:17:39.590Z,97756.11
2018-11-13T15:20:09.129Z,97756.84
2018-11-13T15:22:36.399Z,97761.13
2018-11-13T15:25:04.330Z,97766.09
2018-11-13T15:27:31.603Z,97761.58
2018-11-13T15:29:58.877Z,97768.64
2018-11-13T15:32:26.102Z,97770.17
2018-11-13T15:34:53.361Z,97776.45
2018-11-13T15:37:20.580Z,97777.98
2018-11-13T15:39:47.857Z,97778.44
2018-11-13T15:42:15.056Z,97778.27
2018-11-13T15:44:42.438Z,97778.66
2018-11-13T15:47:09.726Z,97783.27
2018-11-13T15:49:37.277Z,97782.34
2018-11-13T15:52:04.602Z,97779.73
2018-11-13T15:54:31.787Z,97774.75
2018-11-13T15:56:59.034Z,97767.46
2018-11-13T15:59:26.248Z,97773.13
2018-11-13T16:01:53.496Z,97773.06
2018-11-13T16:04:20.733Z,97775.98
2018-11-13T16:06:47.986Z,97781.36
2018-11-13T16:09:15.297Z,97781.67
2018-11-13T16:11:42.533Z,97788.16
2018-11-13T16:14:10.461Z,97787.87
2018-11-13T16:16:37.678Z,97781.23
2018-11-13T16:19:04.980Z,97779.72
2018-11-13T16:21:32.254Z,97779.80
2018-11-13T16:23:59.561Z,97785.27
2018-11-13T16:26:26.798Z,97792.28
2018-11-13T16:28:53.987Z,97786.55
2018-11-13T16:31:21.295Z,97792.04
2018-11-13T16:33:48.569Z,97804.66
2018-11-13T16:36:16.281Z,97802.58
2018-11-13T16:38:43.429Z,97800.84
2018-11-13T16:41:10.750Z,97803.63
2018-11-13T16:43:37.972Z,97807.27
2018-11-13T16:46:05.731Z,97805.44
2018-11-13T16:48:33.070Z,97814.16
2018-11-13T16:51:00.349Z,97814.69
2018-11-13T16:53:27.782Z,97817.01
2018-11-13T16:55:56.047Z,97828.91
2018-11-13T16:58:23.285Z,97831.84
2018-11-13T17:00:50.513Z,97839.98
2018-11-13T17:03:17.714Z,97843.17
2018-11-13T17:05:45.131Z,97839.94
2018-11-13T17:08:12.222Z,97845.63
2018-11-13T17:10:40.657Z,97844.81
2018-11-13T17:13:08.006Z,97842.06
2018-11-13T17:15:35.283Z,97845.95
2018-11-13T17:18:03.018Z,97845.00
2018-11-13T17:20:30.355Z,97846.92
2018-11-13T17:22:57.635Z,97845.72
2018-11-13T17:25:28.241Z,97846.06
2018-11-13T17:27:55.731Z,97847.06
2018-11-13T17:30:26.715Z,97845.53
2018-11-13T17:32:54.964Z,97848.56
2018-11-13T17:35:25.933Z,97856.52
2018-11-13T17:37:59.186Z,97862.19
2018-11-13T17:40:27.795Z,97870.20
2018-11-13T17:42:56.617Z,97869.70
2018-11-13T17:45:26.417Z,97872.97
2018-11-13T17:47:53.663Z,97873.66
2018-11-13T17:50:23.129Z,97871.80
2018-11-13T17:52:50.836Z,97875.70
2018-11-13T17:55:24.062Z,97877.03
2018-11-13T17:57:52.642Z,97881.22
2018-11-13T18:00:22.317Z,97879.32
2018-11-13T18:02:49.878Z,97882.66
2018-11-13T18:05:18.346Z,97890.77
2018-11-13T18:07:45.654Z,97885.64
2018-11-13T18:10:13.042Z,97886.70
2018-11-13T18:12:40.433Z,97897.97
2018-11-13T18:15:10.566Z,97899.44
2018-11-13T18:17:37.805Z,97904.98
2018-11-13T18:20:07.134Z,97896.63
2018-11-13T18:22:34.383Z,97896.45
2018-11-13T18:25:04.521Z,97896.84
2018-11-13T18:27:31.769Z,97896.28
2018-11-13T18:29:59.027Z,97899.44
2018-11-13T18:32:26.250Z,97903.07
2018-11-13T18:34:54.789Z,97897.09
2018-11-13T18:37:22.093Z,97900.13
2018-11-13T18:39:49.262Z,97909.45
2018-11-13T18:42:16.627Z,97911.02
2018-11-13T18:44:44.045Z,97906.62
2018-11-13T18:47:11.316Z,97907.60
2018-11-13T18:49:38.658Z,97908.08
2018-11-13T18:52:05.885Z,97905.48
2018-11-13T18:54:33.089Z,97896.52
2018-11-13T18:57:00.437Z,97900.06
2018-11-13T18:59:27.654Z,97899.32
2018-11-13T19:01:55.062Z,97896.77
2018-11-13T19:04:22.412Z,97623.85
2018-11-13T19:06:49.728Z,97895.49
2018-11-13T19:09:17.029Z,97903.17
2018-11-13T19:11:44.458Z,97902.66
2018-11-13T19:14:12.162Z,97903.56
2018-11-13T19:16:39.573Z,97908.87
2018-11-13T19:19:07.036Z,97909.46
2018-11-13T19:21:34.374Z,97914.80
2018-11-13T19:24:01.749Z,97911.46
2018-11-13T19:26:28.917Z,97905.28
2018-11-13T19:28:56.110Z,97907.37
2018-11-13T19:31:23.414Z,97906.41
2018-11-13T19:33:50.650Z,97910.09
2018-11-13T19:36:18.198Z,97915.00
2018-11-13T19:38:45.485Z,97921.13
2018-11-13T19:41:12.735Z,97919.55
2018-11-13T19:43:40.048Z,97919.16
2018-11-13T19:46:07.428Z,97914.69
2018-11-13T19:48:34.705Z,97918.42
2018-11-13T19:51:01.924Z,97917.52
2018-11-13T19:53:29.150Z,97925.53
2018-11-13T19:55:56.404Z,97932.37
2018-11-13T19:58:24.060Z,97926.28
2018-11-13T20:00:51.319Z,97929.45
2018-11-13T20:03:18.553Z,97926.86
2018-11-13T20:05:45.865Z,97935.22
2018-11-13T20:08:13.099Z,97932.91
2018-11-13T20:10:40.576Z,97937.77
2018-11-13T20:13:08.661Z,97938.84
2018-11-13T20:15:36.475Z,97936.38
2018-11-13T20:18:03.845Z,97944.52
2018-11-13T20:20:32.237Z,97941.70
2018-11-13T20:23:00.468Z,97940.67
2018-11-13T20:25:30.052Z,97947.55
2018-11-13T20:27:57.392Z,97944.95
2018-11-13T20:30:27.052Z,97945.19
2018-11-13T20:32:54.484Z,97954.43
2018-11-13T20:35:21.698Z,97953.53
2018-11-13T20:37:49.707Z,97951.61
2018-11-13T20:40:21.311Z,97952.41
2018-11-13T20:42:49.818Z,97957.55
2018-11-13T20:45:17.137Z,97961.73
2018-11-13T20:47:44.372Z,97958.55
2018-11-13T20:50:14.044Z,97963.30
2018-11-13T20:52:46.594Z,97961.17
2018-11-13T20:55:18.905Z,97958.95
2018-11-13T20:57:46.157Z,97960.10
2018-11-13T21:00:15.541Z,97958.44
2018-11-13T21:02:43.198Z,97957.37
2018-11-13T21:05:10.509Z,97959.09
2018-11-13T21:07:37.976Z,97961.81
2018-11-13T21:10:08.674Z,97962.64
2018-11-13T21:12:35.991Z,97963.38
2018-11-13T21:15:04.510Z,97913.78
2018-11-13T21:17:32.107Z,97957.59
2018-11-13T21:19:59.375Z,97957.73
2018-11-13T21:22:26.721Z,97957.03
2018-11-13T21:25:01.237Z,97953.67
2018-11-13T21:27:28.972Z,97954.17
2018-11-13T21:29:56.507Z,97948.28
2018-11-13T21:32:23.774Z,97948.77
2018-11-13T21:34:51.097Z,97952.66
2018-11-13T21:37:18.567Z,97950.98
2018-11-13T21:39:47.125Z,97951.94
2018-11-13T21:42:14.456Z,97947.62
2018-11-13T21:44:41.758Z,97948.00
2018-11-13T21:47:09.165Z,97950.50
2018-11-13T21:49:36.575Z,97953.30
2018-11-13T21:52:04.012Z,97953.07
2018-11-13T21:54:31.431Z,97950.97
2018-11-13T21:56:58.721Z,97949.68
2018-11-13T21:59:26.014Z,97949.66
2018-11-13T22:01:56.766Z,97952.55
2018-11-13T22:04:24.084Z,97960.98
2018-11-13T22:06:51.448Z,97956.78
2018-11-13T22:09:18.707Z,97956.30
2018-11-13T22:11:45.994Z,97958.13
2018-11-13T22:14:13.285Z,97960.00
2018-11-13T22:16:40.719Z,97959.80
2018-11-13T22:19:12.961Z,97958.05
2018-11-13T22:21:40.277Z,97952.15
2018-11-13T22:24:07.593Z,97951.86
2018-11-13T22:26:34.912Z,97954.20
2018-11-13T22:29:02.242Z,97949.36
2018-11-13T22:31:29.839Z,97948.52
2018-11-13T22:33:56.940Z,97953.64
2018-11-13T22:36:24.302Z,97955.90
2018-11-13T22:38:51.629Z,97952.00
2018-11-13T22:41:18.905Z,97957.25
2018-11-13T22:43:46.168Z,97963.20
2018-11-13T22:46:13.510Z,97955.17
2018-11-13T22:48:40.783Z,97957.81
2018-11-13T22:51:08.043Z,97957.79
2018-11-13T22:53:35.294Z,97951.62
2018-11-13T22:56:02.614Z,97898.92
2018-11-13T22:58:30.239Z,97956.49
2018-11-13T23:00:57.268Z,97957.55
2018-11-13T23:03:24.554Z,97953.64
2018-11-13T23:05:51.831Z,97953.83
2018-11-13T23:08:20.159Z,97942.28
2018-11-13T23:10:48.434Z,97944.48
2018-11-13T23:13:15.731Z,97935.55
2018-11-13T23:15:43.046Z,97923.92
2018-11-13T23:18:10.323Z,97937.06
2018-11-13T23:20:37.686Z,97938.75
2018-11-13T23:23:05.265Z,97941.77
2018-11-13T23:25:32.536Z,97934.07
2018-11-13T23:27:59.903Z,97936.38
2018-11-13T23:30:27.779Z,97945.75
2018-11-13T23:32:55.815Z,97953.03
2018-11-13T23:35:23.966Z,97919.98
2018-11-13T23:37:53.455Z,97945.62
2018-11-13T23:40:21.974Z,97947.39
2018-11-13T23:42:49.594Z,97942.18
2018-11-13T23:45:17.986Z,97609.28
2018-11-13T23:47:46.030Z,97946.96
2018-11-13T23:50:13.412Z,97951.31
2018-11-13T23:52:40.924Z,97952.73
2018-11-13T23:55:09.430Z,97950.09
2018-11-13T23:57:36.844Z,97940.42
